Victor, Idaho
Current Conditions -  °F | °C
As of 5:56 AM on Wednesday 22 Oct 2014 (Local Time) from KDIJ Reporting Station
Clear Clear  
Wind Chill: 31°   Ceiling: Unl
Heat Index: 31°   Visibility: 10mi
Dew Point: 28°   Wind: 3mph
Humidity: 88%   Direction: 170°S
Pressure: 30.16"   Gusts: NA
Location:  43.6°N, 111.11°W
Report Text: KDIJ 221156Z AUTO 17003KT 10SM CLR M01/M02 A3016 RMK AO2 53005 70005 T10051022 10033 21005 SLP193
Loading
Personal Weather Stations






























Interactive Weather Map
Tropical Storm Tracking
New forecast layout! Learn more

10-Day Weather Forecast

Advertisements
Track Severe Weather on mobile